• pl
  • eng

Awiacja
Military airports TAF 01:00 01.01.1970

TAF EPCE 180500Z 1806/1815 30006KT 5000 BR BKN013 PROB40 TEMPO
1806/1809 3000 BR BKN010 BECMG 1809/1811 36012KT 9999 BKN020=

TAF EPDA 180500Z 1806/1815 33010KT 9999 BKN020 PROB40 1806/1809 3000
MIFG BR BKN 010 BECMG 1809/1811 06015KT TEMPO 1812/1815
06015G25KT 6000 -RA BKN015=

TAF EPDA 180800Z 1809/1818 04010KT 9999 BKN020 TEMPO 1809/1818 5000
RA BR BKN010 PROB40 TEMPO 1811/1818 05015G27KT=

TAF AMD EPDE 180700Z 1806/1815 27004KT 2500 BR NSC
PROB40 1807/1809 0500 FG
BECMG 1809/1811 4000 SN BR BKN010 OVC017
BECMG 1811/1813 2000 SN BR BKN005 OVC010=

TAF AMD EPDE 180805Z 1809/1818 CNL=

TAF EPKS 180500Z 1806/1815 VRB02KT 5000 BR NSC
PROB40 1806/1808 0800 FZFG BKN002
BECMG 1810/1812 34008KT -RA BR SCT009 BKN015=

TAF EPKS 180800Z 1809/1818 29004KT 5000 BR NSC
TEMPO 1813/1818 35008KT 3000 -RA BR SCT008 BKN015
PROB30 TEMPO 1814/1818 1500 RADZ BKN006=

TAF EPLY 180800Z 1809/1818 27006KT 4000 BR NSC BECMG 1811/1813 BKN013
TEMPO 1812/1818 2000 -RA BR BKN008 PROB40 1813/1818 1000 RADZ BR
BKN004=

TAF EPMB 180500Z 1806/1815 30008KT 5000 BR BKN020 BECMG 1808/1810
8000 SCT013 BK N025 PROB30 TEMPO 1806/1810 4000 -RA BR BKN013=

TAF EPMB 180800Z 1809/1818 32008KT 2500 RA BR OVC006 TEMPO 1809/1810
1200 DZ BR OVC004 BECMG 1810/1812 7000 SCT007 OVC012=

TAF EPMI 180500Z 1806/1815 VRB03KT 3000 BR SCT005
TEMPO 1806/1809 0500 FZFG OVC002
BECMG 1810/1812 35006KT 5000 BR OVC010
PROB40 TEMPO 1810/1815 3000 BR BKN006=

TAF EPMI 180800Z 1809/1818 35006KT 6000 OVC015
BECMG 1810/1812 3000 BR BKN005 OVC010
TEMPO 1810/1818 1500 RADZ BKN003=

TAF EPMM 180500Z 1806/1815 VRB03KT 6000 NSC BECMG 1808/1811 29006KT
3000 -RA BR BKN005 OVC015=

TAF EPMM 180800Z 1809/1818 27005KT 5000 BR BKN015 OVC070 TEMPO
1810/1818 1500 -R A DZ BR BKN004 OVC010 PROB40 1810/1812 SNRA
BKN003=

TAF EPOK 180500Z 1806/1815 33008KT 9999 BKN015 PROB40 TEMPO 1806/1809
4000 -RA B R BKN006 BKN010 BECMG 1809/1811 03014KT BKN020 TEMPO
1809/1815 03018G36KT 5000 R A SCT008 BKN015=

TAF EPOK 180800Z 1809/1818 33008KT 9999 BKN015 BECMG 1809/1811
03014KT BKN020 TE MPO 1809/1818 03018G36KT 5000 RA SCT008
BKN015=

TAF EPPW 180500Z 1806/1815 VRB02KT 5000 BR NSC
TEMPO 1806/1809 2000 MIFG BR
PROB40 1806/1808 0600 FZFG BKN003
BECMG 1809/1811 33006KT BKN015
PROB40 1812/1815 2500 RA BR BKN008=

TAF EPPW 180800Z 1809/1818 33006KT 5000 BR NSC BECMG 1809/1811 BKN015
TEMPO 1812 /1818 2500 RA BR BKN007 PROB40 1814/1818 1000 RADZ BR
BKN003=

TAF EPSN 180500Z 1806/1815 VRB02KT 8000 BKN017
BECMG 1806/1808 34006KT SCT007 BKN010
PROB40 TEMPO 1809/1815 3000 RADZ BKN003 BKN010=

TAF EPSN 180800Z 1809/1818 VRB02KT 7000 BKN013
BECMG 1810/1812 03008KT 5000 BR SCT007 BKN010
TEMPO 1810/1818 3000 RA BR BKN006
PROB40 TEMPO 1810/1815 2000 DZ BR BKN004=
Awiacja.imgw.pl jest pogodowym serwisem informacyjnym
Instytutu Meteorologii i Gospodarki Wodnej Państwowego Instytutu Badawczego.
Copyright IMGW PIB 2009-2011© Wszelkie prawa zastrzeżone.